sensor_id;sensor_type;location;lat;lon;timestamp;P1;durP1;ratioP1;P2;durP2;ratioP2
23058;SDS011;30585;51.502;7.218;2023-08-30T00:01:42;10.00;;;8.15;;
23058;SDS011;30585;51.502;7.218;2023-08-30T00:04:10;9.55;;;7.45;;
23058;SDS011;30585;51.502;7.218;2023-08-30T00:06:37;11.23;;;8.27;;
23058;SDS011;30585;51.502;7.218;2023-08-30T00:09:05;10.23;;;8.30;;
23058;SDS011;30585;51.502;7.218;2023-08-30T00:11:36;9.18;;;7.93;;
23058;SDS011;30585;51.502;7.218;2023-08-30T00:14:04;8.48;;;7.60;;
23058;SDS011;30585;51.502;7.218;2023-08-30T00:16:33;8.18;;;6.93;;
23058;SDS011;30585;51.502;7.218;2023-08-30T00:19:01;8.70;;;7.05;;
23058;SDS011;30585;51.502;7.218;2023-08-30T00:21:28;9.80;;;7.93;;
23058;SDS011;30585;51.502;7.218;2023-08-30T00:23:56;8.85;;;7.95;;
23058;SDS011;30585;51.502;7.218;2023-08-30T00:26:24;8.75;;;7.85;;
23058;SDS011;30585;51.502;7.218;2023-08-30T00:28:53;8.38;;;7.57;;
23058;SDS011;30585;51.502;7.218;2023-08-30T00:31:21;8.50;;;7.70;;
23058;SDS011;30585;51.502;7.218;2023-08-30T00:33:49;7.22;;;6.55;;
23058;SDS011;30585;51.502;7.218;2023-08-30T00:36:17;8.85;;;7.50;;
23058;SDS011;30585;51.502;7.218;2023-08-30T00:38:44;8.80;;;7.25;;
23058;SDS011;30585;51.502;7.218;2023-08-30T00:41:12;9.43;;;7.05;;
23058;SDS011;30585;51.502;7.218;2023-08-30T00:43:40;8.00;;;7.00;;
23058;SDS011;30585;51.502;7.218;2023-08-30T00:46:09;8.30;;;7.40;;
23058;SDS011;30585;51.502;7.218;2023-08-30T00:48:37;10.57;;;8.02;;
23058;SDS011;30585;51.502;7.218;2023-08-30T00:51:04;10.52;;;7.00;;
23058;SDS011;30585;51.502;7.218;2023-08-30T00:53:32;7.88;;;7.05;;
23058;SDS011;30585;51.502;7.218;2023-08-30T00:56:00;10.10;;;7.45;;
23058;SDS011;30585;51.502;7.218;2023-08-30T00:58:28;8.63;;;7.80;;
23058;SDS011;30585;51.502;7.218;2023-08-30T01:00:56;8.35;;;7.47;;
23058;SDS011;30585;51.502;7.218;2023-08-30T01:03:26;7.80;;;6.85;;
23058;SDS011;30585;51.502;7.218;2023-08-30T01:05:53;8.68;;;7.35;;
23058;SDS011;30585;51.502;7.218;2023-08-30T01:08:21;9.00;;;7.22;;
23058;SDS011;30585;51.502;7.218;2023-08-30T01:10:53;16.65;;;9.02;;
23058;SDS011;30585;51.502;7.218;2023-08-30T01:13:30;8.48;;;7.57;;
23058;SDS011;30585;51.502;7.218;2023-08-30T01:16:01;10.45;;;7.35;;
23058;SDS011;30585;51.502;7.218;2023-08-30T01:18:32;10.18;;;7.78;;
23058;SDS011;30585;51.502;7.218;2023-08-30T01:21:02;9.20;;;7.25;;
23058;SDS011;30585;51.502;7.218;2023-08-30T01:23:36;8.23;;;7.47;;
23058;SDS011;30585;51.502;7.218;2023-08-30T01:26:11;10.37;;;7.20;;
23058;SDS011;30585;51.502;7.218;2023-08-30T01:28:47;13.93;;;7.57;;
23058;SDS011;30585;51.502;7.218;2023-08-30T01:31:16;8.75;;;7.28;;
23058;SDS011;30585;51.502;7.218;2023-08-30T01:33:46;9.40;;;7.68;;
23058;SDS011;30585;51.502;7.218;2023-08-30T01:36:14;8.65;;;7.75;;
23058;SDS011;30585;51.502;7.218;2023-08-30T01:38:43;10.00;;;8.85;;
23058;SDS011;30585;51.502;7.218;2023-08-30T01:41:12;9.95;;;8.50;;
23058;SDS011;30585;51.502;7.218;2023-08-30T01:43:41;11.32;;;8.43;;
23058;SDS011;30585;51.502;7.218;2023-08-30T01:46:14;13.25;;;9.25;;
23058;SDS011;30585;51.502;7.218;2023-08-30T01:48:43;11.68;;;9.02;;
23058;SDS011;30585;51.502;7.218;2023-08-30T01:51:13;12.20;;;9.57;;
23058;SDS011;30585;51.502;7.218;2023-08-30T01:53:43;11.13;;;8.52;;
23058;SDS011;30585;51.502;7.218;2023-08-30T01:56:11;10.57;;;9.48;;
23058;SDS011;30585;51.502;7.218;2023-08-30T01:58:39;13.27;;;9.25;;
23058;SDS011;30585;51.502;7.218;2023-08-30T02:01:07;11.83;;;9.70;;
23058;SDS011;30585;51.502;7.218;2023-08-30T02:03:37;13.52;;;9.80;;
23058;SDS011;30585;51.502;7.218;2023-08-30T02:06:05;14.20;;;10.40;;
23058;SDS011;30585;51.502;7.218;2023-08-30T02:08:37;12.80;;;9.95;;
23058;SDS011;30585;51.502;7.218;2023-08-30T02:11:11;11.57;;;10.05;;
23058;SDS011;30585;51.502;7.218;2023-08-30T02:13:44;14.13;;;10.35;;
23058;SDS011;30585;51.502;7.218;2023-08-30T02:16:13;10.95;;;9.63;;
23058;SDS011;30585;51.502;7.218;2023-08-30T02:18:43;11.82;;;9.65;;
23058;SDS011;30585;51.502;7.218;2023-08-30T02:21:12;11.55;;;10.15;;
23058;SDS011;30585;51.502;7.218;2023-08-30T02:23:40;13.23;;;9.77;;
23058;SDS011;30585;51.502;7.218;2023-08-30T02:26:08;15.93;;;10.95;;
23058;SDS011;30585;51.502;7.218;2023-08-30T02:28:36;13.02;;;9.95;;
23058;SDS011;30585;51.502;7.218;2023-08-30T02:31:04;11.93;;;10.50;;
23058;SDS011;30585;51.502;7.218;2023-08-30T02:33:32;11.97;;;10.17;;
23058;SDS011;30585;51.502;7.218;2023-08-30T02:36:01;12.30;;;9.90;;
23058;SDS011;30585;51.502;7.218;2023-08-30T02:38:29;13.93;;;9.65;;
23058;SDS011;30585;51.502;7.218;2023-08-30T02:40:57;12.75;;;10.23;;
23058;SDS011;30585;51.502;7.218;2023-08-30T02:43:24;12.50;;;10.20;;
23058;SDS011;30585;51.502;7.218;2023-08-30T02:45:52;14.10;;;9.40;;
23058;SDS011;30585;51.502;7.218;2023-08-30T02:48:20;11.60;;;10.25;;
23058;SDS011;30585;51.502;7.218;2023-08-30T02:50:48;11.23;;;9.57;;
23058;SDS011;30585;51.502;7.218;2023-08-30T02:53:17;12.82;;;10.50;;
23058;SDS011;30585;51.502;7.218;2023-08-30T02:55:46;12.43;;;10.47;;
23058;SDS011;30585;51.502;7.218;2023-08-30T02:58:14;13.93;;;11.20;;
23058;SDS011;30585;51.502;7.218;2023-08-30T03:00:41;13.35;;;10.80;;
23058;SDS011;30585;51.502;7.218;2023-08-30T03:03:09;13.35;;;11.02;;
23058;SDS011;30585;51.502;7.218;2023-08-30T03:05:37;14.17;;;11.73;;
23058;SDS011;30585;51.502;7.218;2023-08-30T03:08:05;15.02;;;11.50;;
23058;SDS011;30585;51.502;7.218;2023-08-30T03:10:34;14.73;;;11.90;;
23058;SDS011;30585;51.502;7.218;2023-08-30T03:13:02;14.73;;;11.67;;
23058;SDS011;30585;51.502;7.218;2023-08-30T03:15:30;17.27;;;10.80;;
23058;SDS011;30585;51.502;7.218;2023-08-30T03:17:59;15.40;;;11.63;;
23058;SDS011;30585;51.502;7.218;2023-08-30T03:20:27;15.77;;;12.10;;
23058;SDS011;30585;51.502;7.218;2023-08-30T03:22:55;15.63;;;12.20;;
23058;SDS011;30585;51.502;7.218;2023-08-30T03:25:24;15.37;;;12.47;;
23058;SDS011;30585;51.502;7.218;2023-08-30T03:27:53;13.83;;;11.93;;
23058;SDS011;30585;51.502;7.218;2023-08-30T03:30:21;17.17;;;12.97;;
23058;SDS011;30585;51.502;7.218;2023-08-30T03:32:48;13.10;;;11.70;;
23058;SDS011;30585;51.502;7.218;2023-08-30T03:35:16;18.00;;;13.23;;
23058;SDS011;30585;51.502;7.218;2023-08-30T03:37:46;16.37;;;13.20;;
23058;SDS011;30585;51.502;7.218;2023-08-30T03:40:14;15.83;;;13.03;;
23058;SDS011;30585;51.502;7.218;2023-08-30T03:42:42;18.13;;;13.30;;
23058;SDS011;30585;51.502;7.218;2023-08-30T03:45:11;17.23;;;13.20;;
23058;SDS011;30585;51.502;7.218;2023-08-30T03:47:39;16.60;;;14.00;;
23058;SDS011;30585;51.502;7.218;2023-08-30T03:50:07;18.97;;;13.97;;
23058;SDS011;30585;51.502;7.218;2023-08-30T03:52:35;19.53;;;15.03;;
23058;SDS011;30585;51.502;7.218;2023-08-30T03:55:03;19.37;;;14.93;;
23058;SDS011;30585;51.502;7.218;2023-08-30T03:57:31;20.67;;;15.10;;
23058;SDS011;30585;51.502;7.218;2023-08-30T03:59:59;18.67;;;15.40;;
23058;SDS011;30585;51.502;7.218;2023-08-30T04:02:28;21.33;;;15.27;;
23058;SDS011;30585;51.502;7.218;2023-08-30T04:04:56;19.80;;;15.93;;
23058;SDS011;30585;51.502;7.218;2023-08-30T04:07:23;22.77;;;15.97;;
23058;SDS011;30585;51.502;7.218;2023-08-30T04:09:51;17.37;;;14.63;;
23058;SDS011;30585;51.502;7.218;2023-08-30T04:12:19;20.80;;;16.10;;
23058;SDS011;30585;51.502;7.218;2023-08-30T04:14:46;23.20;;;14.60;;
23058;SDS011;30585;51.502;7.218;2023-08-30T04:17:14;19.33;;;14.93;;
23058;SDS011;30585;51.502;7.218;2023-08-30T04:19:43;18.67;;;14.67;;
23058;SDS011;30585;51.502;7.218;2023-08-30T04:22:11;20.77;;;16.00;;
23058;SDS011;30585;51.502;7.218;2023-08-30T04:24:38;18.80;;;15.83;;
23058;SDS011;30585;51.502;7.218;2023-08-30T04:27:06;18.93;;;15.40;;
23058;SDS011;30585;51.502;7.218;2023-08-30T04:29:34;21.63;;;17.23;;
23058;SDS011;30585;51.502;7.218;2023-08-30T04:32:02;21.10;;;15.27;;
23058;SDS011;30585;51.502;7.218;2023-08-30T04:34:30;19.60;;;15.47;;
23058;SDS011;30585;51.502;7.218;2023-08-30T04:36:59;16.97;;;15.03;;
23058;SDS011;30585;51.502;7.218;2023-08-30T04:39:26;20.37;;;14.90;;
23058;SDS011;30585;51.502;7.218;2023-08-30T04:41:54;20.80;;;16.73;;
23058;SDS011;30585;51.502;7.218;2023-08-30T04:44:22;21.00;;;16.50;;
23058;SDS011;30585;51.502;7.218;2023-08-30T04:46:51;24.50;;;16.80;;
23058;SDS011;30585;51.502;7.218;2023-08-30T04:49:19;25.80;;;17.70;;
23058;SDS011;30585;51.502;7.218;2023-08-30T04:51:47;18.70;;;15.30;;
23058;SDS011;30585;51.502;7.218;2023-08-30T04:54:16;21.30;;;17.30;;
23058;SDS011;30585;51.502;7.218;2023-08-30T04:56:44;21.70;;;16.70;;
23058;SDS011;30585;51.502;7.218;2023-08-30T04:59:12;21.53;;;17.43;;
23058;SDS011;30585;51.502;7.218;2023-08-30T05:01:39;27.47;;;18.23;;
23058;SDS011;30585;51.502;7.218;2023-08-30T05:04:10;24.80;;;17.90;;
23058;SDS011;30585;51.502;7.218;2023-08-30T05:06:38;22.40;;;19.13;;
23058;SDS011;30585;51.502;7.218;2023-08-30T05:09:06;23.70;;;18.03;;
23058;SDS011;30585;51.502;7.218;2023-08-30T05:11:35;25.07;;;18.33;;
23058;SDS011;30585;51.502;7.218;2023-08-30T05:14:02;25.70;;;19.47;;
23058;SDS011;30585;51.502;7.218;2023-08-30T05:16:30;26.40;;;19.50;;
23058;SDS011;30585;51.502;7.218;2023-08-30T05:19:00;24.43;;;18.90;;
23058;SDS011;30585;51.502;7.218;2023-08-30T05:21:28;26.07;;;19.60;;
23058;SDS011;30585;51.502;7.218;2023-08-30T05:23:55;24.60;;;18.87;;
23058;SDS011;30585;51.502;7.218;2023-08-30T05:26:23;26.57;;;20.77;;
23058;SDS011;30585;51.502;7.218;2023-08-30T05:28:52;27.33;;;19.43;;
23058;SDS011;30585;51.502;7.218;2023-08-30T05:31:20;26.37;;;20.57;;
23058;SDS011;30585;51.502;7.218;2023-08-30T05:33:48;25.97;;;20.33;;
23058;SDS011;30585;51.502;7.218;2023-08-30T05:36:16;28.77;;;20.83;;
23058;SDS011;30585;51.502;7.218;2023-08-30T05:38:44;26.30;;;19.97;;
23058;SDS011;30585;51.502;7.218;2023-08-30T05:41:12;28.30;;;21.37;;
23058;SDS011;30585;51.502;7.218;2023-08-30T05:43:40;33.73;;;23.07;;
23058;SDS011;30585;51.502;7.218;2023-08-30T05:46:09;39.20;;;27.10;;
23058;SDS011;30585;51.502;7.218;2023-08-30T05:48:41;36.57;;;26.80;;
23058;SDS011;30585;51.502;7.218;2023-08-30T05:51:09;37.83;;;28.03;;
23058;SDS011;30585;51.502;7.218;2023-08-30T05:53:37;36.77;;;26.70;;
23058;SDS011;30585;51.502;7.218;2023-08-30T05:56:04;35.83;;;26.53;;
23058;SDS011;30585;51.502;7.218;2023-08-30T05:58:32;29.47;;;22.53;;
23058;SDS011;30585;51.502;7.218;2023-08-30T06:01:00;33.05;;;25.42;;
23058;SDS011;30585;51.502;7.218;2023-08-30T06:03:32;32.17;;;24.47;;
23058;SDS011;30585;51.502;7.218;2023-08-30T06:06:00;37.00;;;26.30;;
23058;SDS011;30585;51.502;7.218;2023-08-30T06:08:27;31.67;;;24.97;;
23058;SDS011;30585;51.502;7.218;2023-08-30T06:10:55;36.92;;;27.10;;
23058;SDS011;30585;51.502;7.218;2023-08-30T06:13:23;34.47;;;26.05;;
23058;SDS011;30585;51.502;7.218;2023-08-30T06:15:51;34.95;;;26.85;;
23058;SDS011;30585;51.502;7.218;2023-08-30T06:18:19;38.90;;;27.27;;
23058;SDS011;30585;51.502;7.218;2023-08-30T06:20:48;37.38;;;26.88;;
23058;SDS011;30585;51.502;7.218;2023-08-30T06:23:17;36.97;;;26.65;;
23058;SDS011;30585;51.502;7.218;2023-08-30T06:25:52;38.63;;;26.75;;
23058;SDS011;30585;51.502;7.218;2023-08-30T06:28:21;32.88;;;26.40;;
23058;SDS011;30585;51.502;7.218;2023-08-30T06:30:48;38.38;;;27.20;;
23058;SDS011;30585;51.502;7.218;2023-08-30T06:33:16;33.80;;;26.50;;
23058;SDS011;30585;51.502;7.218;2023-08-30T06:35:47;37.10;;;26.92;;
23058;SDS011;30585;51.502;7.218;2023-08-30T06:38:16;38.50;;;28.77;;
23058;SDS011;30585;51.502;7.218;2023-08-30T06:40:44;36.67;;;27.52;;
23058;SDS011;30585;51.502;7.218;2023-08-30T06:43:13;34.75;;;28.60;;
23058;SDS011;30585;51.502;7.218;2023-08-30T06:45:40;39.35;;;28.27;;
23058;SDS011;30585;51.502;7.218;2023-08-30T06:48:08;35.53;;;26.65;;
23058;SDS011;30585;51.502;7.218;2023-08-30T06:50:38;32.10;;;26.08;;
23058;SDS011;30585;51.502;7.218;2023-08-30T06:53:07;34.65;;;26.83;;
23058;SDS011;30585;51.502;7.218;2023-08-30T06:55:35;38.80;;;28.00;;
23058;SDS011;30585;51.502;7.218;2023-08-30T06:58:04;33.78;;;26.17;;
23058;SDS011;30585;51.502;7.218;2023-08-30T07:00:33;32.58;;;25.40;;
23058;SDS011;30585;51.502;7.218;2023-08-30T07:03:00;35.85;;;25.52;;
23058;SDS011;30585;51.502;7.218;2023-08-30T07:05:28;29.05;;;23.15;;
23058;SDS011;30585;51.502;7.218;2023-08-30T07:07:56;28.45;;;23.42;;
23058;SDS011;30585;51.502;7.218;2023-08-30T07:10:25;27.98;;;20.83;;
23058;SDS011;30585;51.502;7.218;2023-08-30T07:12:53;24.58;;;19.67;;
23058;SDS011;30585;51.502;7.218;2023-08-30T07:15:20;26.65;;;18.85;;
23058;SDS011;30585;51.502;7.218;2023-08-30T07:17:48;23.40;;;18.85;;
23058;SDS011;30585;51.502;7.218;2023-08-30T07:20:20;21.35;;;18.35;;
23058;SDS011;30585;51.502;7.218;2023-08-30T07:22:48;22.75;;;18.42;;
23058;SDS011;30585;51.502;7.218;2023-08-30T07:25:15;23.67;;;18.15;;
23058;SDS011;30585;51.502;7.218;2023-08-30T07:27:44;21.92;;;17.60;;
23058;SDS011;30585;51.502;7.218;2023-08-30T07:30:12;25.67;;;17.45;;
23058;SDS011;30585;51.502;7.218;2023-08-30T07:32:40;23.02;;;17.25;;
23058;SDS011;30585;51.502;7.218;2023-08-30T07:35:08;19.63;;;15.80;;
23058;SDS011;30585;51.502;7.218;2023-08-30T07:37:40;18.73;;;15.57;;
23058;SDS011;30585;51.502;7.218;2023-08-30T07:40:08;19.13;;;14.20;;
23058;SDS011;30585;51.502;7.218;2023-08-30T07:42:37;16.73;;;13.55;;
23058;SDS011;30585;51.502;7.218;2023-08-30T07:45:06;17.88;;;14.65;;
23058;SDS011;30585;51.502;7.218;2023-08-30T07:47:35;17.58;;;13.90;;
23058;SDS011;30585;51.502;7.218;2023-08-30T07:50:04;15.55;;;13.50;;
23058;SDS011;30585;51.502;7.218;2023-08-30T07:52:33;15.13;;;12.65;;
23058;SDS011;30585;51.502;7.218;2023-08-30T07:55:11;17.80;;;12.75;;
23058;SDS011;30585;51.502;7.218;2023-08-30T07:57:40;16.27;;;11.88;;
23058;SDS011;30585;51.502;7.218;2023-08-30T08:00:10;14.80;;;12.07;;
23058;SDS011;30585;51.502;7.218;2023-08-30T08:02:39;13.07;;;10.38;;
23058;SDS011;30585;51.502;7.218;2023-08-30T08:05:07;14.40;;;11.35;;
23058;SDS011;30585;51.502;7.218;2023-08-30T08:07:37;12.25;;;10.10;;
23058;SDS011;30585;51.502;7.218;2023-08-30T08:10:06;11.07;;;9.82;;
23058;SDS011;30585;51.502;7.218;2023-08-30T08:12:34;11.20;;;8.85;;
23058;SDS011;30585;51.502;7.218;2023-08-30T08:15:02;13.15;;;9.65;;
23058;SDS011;30585;51.502;7.218;2023-08-30T08:17:32;9.27;;;8.30;;
23058;SDS011;30585;51.502;7.218;2023-08-30T08:20:00;11.75;;;9.10;;
23058;SDS011;30585;51.502;7.218;2023-08-30T08:22:27;9.93;;;8.23;;
23058;SDS011;30585;51.502;7.218;2023-08-30T08:24:55;10.35;;;8.07;;
23058;SDS011;30585;51.502;7.218;2023-08-30T08:27:24;14.70;;;7.60;;
23058;SDS011;30585;51.502;7.218;2023-08-30T08:29:52;9.35;;;6.80;;
23058;SDS011;30585;51.502;7.218;2023-08-30T08:32:20;9.43;;;6.80;;
23058;SDS011;30585;51.502;7.218;2023-08-30T08:34:49;8.98;;;6.72;;
23058;SDS011;30585;51.502;7.218;2023-08-30T08:37:16;14.73;;;6.38;;
23058;SDS011;30585;51.502;7.218;2023-08-30T08:39:44;13.57;;;7.20;;
23058;SDS011;30585;51.502;7.218;2023-08-30T08:42:13;19.73;;;6.30;;
23058;SDS011;30585;51.502;7.218;2023-08-30T08:44:42;14.25;;;5.40;;
23058;SDS011;30585;51.502;7.218;2023-08-30T08:47:15;8.07;;;4.55;;
23058;SDS011;30585;51.502;7.218;2023-08-30T08:49:44;7.03;;;4.28;;
23058;SDS011;30585;51.502;7.218;2023-08-30T08:52:13;5.63;;;4.43;;
23058;SDS011;30585;51.502;7.218;2023-08-30T08:54:58;6.63;;;4.22;;
23058;SDS011;30585;51.502;7.218;2023-08-30T08:57:26;5.25;;;4.10;;
23058;SDS011;30585;51.502;7.218;2023-08-30T08:59:57;9.98;;;4.45;;
23058;SDS011;30585;51.502;7.218;2023-08-30T09:02:25;6.53;;;4.47;;
23058;SDS011;30585;51.502;7.218;2023-08-30T09:04:55;7.57;;;4.75;;
23058;SDS011;30585;51.502;7.218;2023-08-30T09:07:26;7.95;;;4.10;;
23058;SDS011;30585;51.502;7.218;2023-08-30T09:09:54;7.43;;;4.43;;
23058;SDS011;30585;51.502;7.218;2023-08-30T09:12:22;6.35;;;4.28;;
23058;SDS011;30585;51.502;7.218;2023-08-30T09:14:53;6.60;;;4.72;;
23058;SDS011;30585;51.502;7.218;2023-08-30T09:17:22;7.63;;;4.20;;
23058;SDS011;30585;51.502;7.218;2023-08-30T09:19:50;6.18;;;3.67;;
23058;SDS011;30585;51.502;7.218;2023-08-30T09:22:18;5.70;;;3.95;;
23058;SDS011;30585;51.502;7.218;2023-08-30T09:24:47;6.70;;;4.75;;
23058;SDS011;30585;51.502;7.218;2023-08-30T09:27:14;5.55;;;3.90;;
23058;SDS011;30585;51.502;7.218;2023-08-30T09:29:44;7.85;;;5.30;;
23058;SDS011;30585;51.502;7.218;2023-08-30T09:32:12;9.68;;;4.85;;
23058;SDS011;30585;51.502;7.218;2023-08-30T09:34:45;5.95;;;4.07;;
23058;SDS011;30585;51.502;7.218;2023-08-30T09:37:19;5.03;;;4.43;;
23058;SDS011;30585;51.502;7.218;2023-08-30T09:39:51;8.57;;;4.75;;
23058;SDS011;30585;51.502;7.218;2023-08-30T09:42:19;8.40;;;4.53;;
23058;SDS011;30585;51.502;7.218;2023-08-30T09:44:48;7.28;;;4.05;;
23058;SDS011;30585;51.502;7.218;2023-08-30T09:47:16;9.73;;;4.60;;
23058;SDS011;30585;51.502;7.218;2023-08-30T09:49:44;5.70;;;4.05;;
23058;SDS011;30585;51.502;7.218;2023-08-30T09:52:14;6.85;;;5.10;;
23058;SDS011;30585;51.502;7.218;2023-08-30T09:54:43;7.65;;;4.82;;
23058;SDS011;30585;51.502;7.218;2023-08-30T09:57:13;7.72;;;4.55;;
23058;SDS011;30585;51.502;7.218;2023-08-30T09:59:43;9.38;;;4.75;;
23058;SDS011;30585;51.502;7.218;2023-08-30T10:02:12;5.75;;;4.22;;
23058;SDS011;30585;51.502;7.218;2023-08-30T10:04:40;5.13;;;4.22;;
23058;SDS011;30585;51.502;7.218;2023-08-30T10:07:10;5.63;;;4.38;;
23058;SDS011;30585;51.502;7.218;2023-08-30T10:09:38;6.70;;;4.70;;
23058;SDS011;30585;51.502;7.218;2023-08-30T10:12:28;6.55;;;4.20;;
23058;SDS011;30585;51.502;7.218;2023-08-30T10:14:56;8.68;;;4.45;;
23058;SDS011;30585;51.502;7.218;2023-08-30T10:17:27;6.53;;;4.85;;
23058;SDS011;30585;51.502;7.218;2023-08-30T10:19:55;11.30;;;5.07;;
23058;SDS011;30585;51.502;7.218;2023-08-30T10:22:24;7.70;;;5.03;;
23058;SDS011;30585;51.502;7.218;2023-08-30T10:24:54;5.13;;;4.60;;
23058;SDS011;30585;51.502;7.218;2023-08-30T10:27:39;7.47;;;4.88;;
23058;SDS011;30585;51.502;7.218;2023-08-30T10:30:10;4.90;;;4.43;;
23058;SDS011;30585;51.502;7.218;2023-08-30T10:32:39;8.30;;;5.38;;
23058;SDS011;30585;51.502;7.218;2023-08-30T10:35:10;6.13;;;5.40;;
23058;SDS011;30585;51.502;7.218;2023-08-30T10:37:38;8.10;;;5.43;;
23058;SDS011;30585;51.502;7.218;2023-08-30T10:40:07;6.63;;;4.95;;
23058;SDS011;30585;51.502;7.218;2023-08-30T10:42:35;7.10;;;5.10;;
23058;SDS011;30585;51.502;7.218;2023-08-30T10:45:06;7.20;;;5.20;;
23058;SDS011;30585;51.502;7.218;2023-08-30T10:47:40;8.40;;;6.70;;
23058;SDS011;30585;51.502;7.218;2023-08-30T10:50:08;7.05;;;6.38;;
23058;SDS011;30585;51.502;7.218;2023-08-30T10:52:38;8.05;;;6.13;;
23058;SDS011;30585;51.502;7.218;2023-08-30T10:55:06;9.07;;;6.72;;
23058;SDS011;30585;51.502;7.218;2023-08-30T10:57:35;8.73;;;7.00;;
23058;SDS011;30585;51.502;7.218;2023-08-30T11:00:06;8.27;;;7.10;;
23058;SDS011;30585;51.502;7.218;2023-08-30T11:02:36;9.77;;;7.65;;
23058;SDS011;30585;51.502;7.218;2023-08-30T11:05:05;10.07;;;7.82;;
23058;SDS011;30585;51.502;7.218;2023-08-30T11:07:34;9.88;;;7.82;;
23058;SDS011;30585;51.502;7.218;2023-08-30T11:10:04;13.93;;;8.32;;
23058;SDS011;30585;51.502;7.218;2023-08-30T11:12:32;10.40;;;8.43;;
23058;SDS011;30585;51.502;7.218;2023-08-30T11:15:01;10.52;;;8.63;;
23058;SDS011;30585;51.502;7.218;2023-08-30T11:17:31;8.50;;;7.70;;
23058;SDS011;30585;51.502;7.218;2023-08-30T11:20:05;9.55;;;8.48;;
23058;SDS011;30585;51.502;7.218;2023-08-30T11:22:34;12.13;;;9.35;;
23058;SDS011;30585;51.502;7.218;2023-08-30T11:25:04;11.63;;;9.05;;
23058;SDS011;30585;51.502;7.218;2023-08-30T11:27:32;11.68;;;10.10;;
23058;SDS011;30585;51.502;7.218;2023-08-30T11:30:00;10.45;;;9.35;;
23058;SDS011;30585;51.502;7.218;2023-08-30T11:32:33;13.38;;;9.88;;
23058;SDS011;30585;51.502;7.218;2023-08-30T11:35:01;12.65;;;9.18;;
23058;SDS011;30585;51.502;7.218;2023-08-30T11:37:29;10.93;;;9.57;;
23058;SDS011;30585;51.502;7.218;2023-08-30T11:39:58;11.40;;;9.68;;
23058;SDS011;30585;51.502;7.218;2023-08-30T11:42:26;13.50;;;9.20;;
23058;SDS011;30585;51.502;7.218;2023-08-30T11:44:54;11.88;;;10.48;;
23058;SDS011;30585;51.502;7.218;2023-08-30T11:47:22;13.93;;;10.43;;
23058;SDS011;30585;51.502;7.218;2023-08-30T11:49:53;11.70;;;10.50;;
23058;SDS011;30585;51.502;7.218;2023-08-30T11:52:23;11.32;;;9.20;;
23058;SDS011;30585;51.502;7.218;2023-08-30T11:54:52;16.60;;;10.88;;
23058;SDS011;30585;51.502;7.218;2023-08-30T11:57:21;13.60;;;10.00;;
23058;SDS011;30585;51.502;7.218;2023-08-30T11:59:49;8.60;;;7.43;;
23058;SDS011;30585;51.502;7.218;2023-08-30T12:02:17;6.78;;;6.07;;
23058;SDS011;30585;51.502;7.218;2023-08-30T12:04:46;7.20;;;6.50;;
23058;SDS011;30585;51.502;7.218;2023-08-30T12:07:22;6.38;;;4.97;;
23058;SDS011;30585;51.502;7.218;2023-08-30T12:09:50;5.25;;;4.72;;
23058;SDS011;30585;51.502;7.218;2023-08-30T12:12:18;5.85;;;4.15;;
23058;SDS011;30585;51.502;7.218;2023-08-30T12:14:54;4.90;;;4.03;;
23058;SDS011;30585;51.502;7.218;2023-08-30T12:17:22;4.82;;;3.88;;
23058;SDS011;30585;51.502;7.218;2023-08-30T12:19:55;4.50;;;3.33;;
23058;SDS011;30585;51.502;7.218;2023-08-30T12:22:34;4.82;;;3.47;;
23058;SDS011;30585;51.502;7.218;2023-08-30T12:25:04;5.47;;;3.10;;
23058;SDS011;30585;51.502;7.218;2023-08-30T12:27:42;4.65;;;3.80;;
23058;SDS011;30585;51.502;7.218;2023-08-30T12:30:10;5.15;;;3.42;;
23058;SDS011;30585;51.502;7.218;2023-08-30T12:32:38;6.10;;;4.15;;
23058;SDS011;30585;51.502;7.218;2023-08-30T12:35:06;6.80;;;3.72;;
23058;SDS011;30585;51.502;7.218;2023-08-30T12:37:36;5.93;;;3.45;;
23058;SDS011;30585;51.502;7.218;2023-08-30T12:40:05;5.55;;;3.45;;
23058;SDS011;30585;51.502;7.218;2023-08-30T12:42:33;4.18;;;3.78;;
23058;SDS011;30585;51.502;7.218;2023-08-30T12:45:01;3.85;;;3.10;;
23058;SDS011;30585;51.502;7.218;2023-08-30T12:47:29;4.25;;;3.25;;
23058;SDS011;30585;51.502;7.218;2023-08-30T12:49:57;4.50;;;3.38;;
23058;SDS011;30585;51.502;7.218;2023-08-30T12:52:25;6.18;;;3.22;;
23058;SDS011;30585;51.502;7.218;2023-08-30T12:54:54;4.13;;;3.72;;
23058;SDS011;30585;51.502;7.218;2023-08-30T12:57:22;3.35;;;2.92;;
23058;SDS011;30585;51.502;7.218;2023-08-30T12:59:50;5.70;;;3.80;;
23058;SDS011;30585;51.502;7.218;2023-08-30T13:02:18;6.05;;;3.78;;
23058;SDS011;30585;51.502;7.218;2023-08-30T13:04:45;6.18;;;4.20;;
23058;SDS011;30585;51.502;7.218;2023-08-30T13:07:13;4.20;;;3.78;;
23058;SDS011;30585;51.502;7.218;2023-08-30T13:09:41;4.72;;;3.28;;
23058;SDS011;30585;51.502;7.218;2023-08-30T13:12:10;4.75;;;3.42;;
23058;SDS011;30585;51.502;7.218;2023-08-30T13:14:38;6.13;;;3.92;;
23058;SDS011;30585;51.502;7.218;2023-08-30T13:17:05;5.15;;;4.00;;
23058;SDS011;30585;51.502;7.218;2023-08-30T13:19:33;4.18;;;3.63;;
23058;SDS011;30585;51.502;7.218;2023-08-30T13:22:01;6.15;;;3.70;;
23058;SDS011;30585;51.502;7.218;2023-08-30T13:24:29;5.22;;;3.90;;
23058;SDS011;30585;51.502;7.218;2023-08-30T13:26:58;4.57;;;4.07;;
23058;SDS011;30585;51.502;7.218;2023-08-30T13:29:28;4.10;;;3.70;;
23058;SDS011;30585;51.502;7.218;2023-08-30T13:31:55;4.50;;;3.60;;
23058;SDS011;30585;51.502;7.218;2023-08-30T13:34:23;4.22;;;3.72;;
23058;SDS011;30585;51.502;7.218;2023-08-30T13:36:51;5.40;;;3.80;;
23058;SDS011;30585;51.502;7.218;2023-08-30T13:39:19;4.22;;;3.83;;
23058;SDS011;30585;51.502;7.218;2023-08-30T13:41:47;7.95;;;3.95;;
23058;SDS011;30585;51.502;7.218;2023-08-30T13:44:14;4.75;;;3.50;;
23058;SDS011;30585;51.502;7.218;2023-08-30T13:46:44;4.35;;;3.70;;
23058;SDS011;30585;51.502;7.218;2023-08-30T13:49:14;4.90;;;4.38;;
23058;SDS011;30585;51.502;7.218;2023-08-30T13:51:43;4.28;;;3.88;;
23058;SDS011;30585;51.502;7.218;2023-08-30T13:54:12;5.03;;;4.18;;
23058;SDS011;30585;51.502;7.218;2023-08-30T13:56:39;7.00;;;5.20;;
23058;SDS011;30585;51.502;7.218;2023-08-30T13:59:08;5.55;;;4.03;;
23058;SDS011;30585;51.502;7.218;2023-08-30T14:01:35;5.75;;;4.57;;
23058;SDS011;30585;51.502;7.218;2023-08-30T14:04:05;4.53;;;3.90;;
23058;SDS011;30585;51.502;7.218;2023-08-30T14:06:33;5.45;;;4.55;;
23058;SDS011;30585;51.502;7.218;2023-08-30T14:09:01;5.35;;;4.22;;
23058;SDS011;30585;51.502;7.218;2023-08-30T14:11:30;5.63;;;4.32;;
23058;SDS011;30585;51.502;7.218;2023-08-30T14:13:58;6.15;;;4.88;;
23058;SDS011;30585;51.502;7.218;2023-08-30T14:16:26;8.30;;;5.15;;
23058;SDS011;30585;51.502;7.218;2023-08-30T14:18:53;4.63;;;4.22;;
23058;SDS011;30585;51.502;7.218;2023-08-30T14:21:23;7.38;;;4.22;;
23058;SDS011;30585;51.502;7.218;2023-08-30T14:23:50;5.05;;;4.00;;
23058;SDS011;30585;51.502;7.218;2023-08-30T14:26:18;5.68;;;4.00;;
23058;SDS011;30585;51.502;7.218;2023-08-30T14:28:46;4.38;;;3.80;;
23058;SDS011;30585;51.502;7.218;2023-08-30T14:31:14;4.70;;;4.28;;
23058;SDS011;30585;51.502;7.218;2023-08-30T14:33:42;6.20;;;5.05;;
23058;SDS011;30585;51.502;7.218;2023-08-30T14:36:12;5.00;;;3.92;;
23058;SDS011;30585;51.502;7.218;2023-08-30T14:38:43;4.38;;;3.75;;
23058;SDS011;30585;51.502;7.218;2023-08-30T14:41:11;4.82;;;4.32;;
23058;SDS011;30585;51.502;7.218;2023-08-30T14:43:39;6.00;;;3.85;;
23058;SDS011;30585;51.502;7.218;2023-08-30T14:46:07;3.97;;;3.67;;